Aviation Digital Data Service (ADDS)

Output produced by METARs form (1413 UTC 22 April 2021)
found at http://www.aviationweather.gov/metar/data/
 
KSTC 221353Z 28012KT 10SM CLR 08/M05 A2995 RMK AO2 SLP159 T00831050
KSTC 221405Z 2214/2312 27010KT P6SM SKC 
     FM221600 25012G19KT P6SM SKC 
     FM230000 22009KT P6SM SKC 
     FM230900 20006KT P6SM -SHRA OVC050 
     FM231100 17006KT P6SM -SHRA OVC025
       
KBRD 221353Z AUTO 26009KT 10SM CLR 08/M04 A2992 RMK AO2 SLP142 T00781044
KBRD 221132Z 2212/2312 23006KT P6SM SKC 
     FM221700 26011KT P6SM SKC 
     FM230000 22009KT P6SM SKC 
     FM231100 20006KT P6SM VCSH BKN030